Time,TemperatureF,DewpointF,PressureIn,WindDirection,WindDirectionDegrees,WindSpeedMPH,WindSpeedGustMPH,Humidity,HourlyPrecipIn,Conditions,Clouds,dailyrainin,SoftwareType,DateUTC
2013-10-10 00:14:00,59.0,45.0,-100.00,North,7,3.0,5.0,61,0.00,,,0.00,,2013-10-10 04:14:00,
2013-10-10 00:24:00,59.0,45.0,-100.00,North,7,3.0,5.0,61,0.00,,,0.00,,2013-10-10 04:24:00,
2013-10-10 00:54:00,56.0,47.0,-100.00,NW,305,0.0,1.0,69,0.00,,,0.00,,2013-10-10 04:54:00,
2013-10-10 01:23:00,56.0,46.0,-100.00,North,354,2.0,4.0,70,0.00,,,0.00,,2013-10-10 05:23:00,
2013-10-10 01:43:00,55.0,45.0,-100.00,North,352,2.0,3.0,69,0.00,,,0.00,,2013-10-10 05:43:00,
2013-10-10 01:53:00,55.0,44.0,-100.00,NNW,337,2.0,3.0,64,0.00,,,0.00,,2013-10-10 05:53:00,
2013-10-10 02:13:00,55.0,43.0,-100.00,North,350,2.0,3.0,63,0.00,,,0.00,,2013-10-10 06:13:00,
2013-10-10 02:22:00,55.0,43.0,-100.00,North,350,2.0,3.0,63,0.00,,,0.00,,2013-10-10 06:22:00,
2013-10-10 02:43:00,55.0,44.0,-100.00,NNW,346,2.0,3.0,65,0.00,,,0.00,,2013-10-10 06:43:00,
2013-10-10 02:53:00,55.0,43.0,-100.00,NNW,344,2.0,3.0,62,0.00,,,0.00,,2013-10-10 06:53:00,
2013-10-10 03:11:00,55.0,43.0,-100.00,NNW,337,2.0,3.0,65,0.00,,,0.00,,2013-10-10 07:11:00,
2013-10-10 03:22:00,54.0,42.0,-100.00,North,7,3.0,4.0,63,0.00,,,0.00,,2013-10-10 07:22:00,
2013-10-10 03:42:00,54.0,43.0,-100.00,NE,56,0.0,1.0,67,0.00,,,0.00,,2013-10-10 07:42:00,
2013-10-10 03:52:00,54.0,43.0,-100.00,NE,56,0.0,1.0,67,0.00,,,0.00,,2013-10-10 07:52:00,
2013-10-10 04:11:00,53.0,42.0,-100.00,NE,38,2.0,2.0,67,0.00,,,0.00,,2013-10-10 08:11:00,
2013-10-10 04:22:00,55.0,42.0,-100.00,North,357,2.0,3.0,60,0.00,,,0.00,,2013-10-10 08:22:00,
2013-10-10 04:32:00,55.0,42.0,-100.00,North,357,2.0,3.0,60,0.00,,,0.00,,2013-10-10 08:32:00,
2013-10-10 04:52:00,54.0,42.0,-100.00,WSW,251,0.0,1.0,66,0.00,,,0.00,,2013-10-10 08:52:00,
2013-10-10 05:12:00,53.0,42.0,-100.00,NNE,32,0.0,1.0,66,0.00,,,0.00,,2013-10-10 09:12:00,
2013-10-10 05:22:00,54.0,41.0,-100.00,NNW,330,2.0,2.0,63,0.00,,,0.00,,2013-10-10 09:22:00,
2013-10-10 05:33:00,54.0,41.0,-100.00,NNW,330,2.0,2.0,63,0.00,,,0.00,,2013-10-10 09:33:00,
2013-10-10 05:43:00,54.0,41.0,-100.00,NNW,330,2.0,2.0,63,0.00,,,0.00,,2013-10-10 09:43:00,
2013-10-10 05:54:00,53.0,42.0,-100.00,NW,309,0.0,0.0,65,0.00,,,0.00,,2013-10-10 09:54:00,
2013-10-10 06:13:00,52.0,42.0,-100.00,NNW,330,0.0,1.0,67,0.00,,,0.00,,2013-10-10 10:13:00,
2013-10-10 06:23:00,52.0,42.0,-100.00,NNW,330,0.0,1.0,67,0.00,,,0.00,,2013-10-10 10:23:00,
2013-10-10 06:43:00,50.0,43.0,-100.00,ENE,58,1.0,1.0,76,0.00,,,0.00,,2013-10-10 10:43:00,
2013-10-10 06:53:00,51.0,42.0,-100.00,North,1,1.0,2.0,70,0.00,,,0.00,,2013-10-10 10:53:00,
2013-10-10 07:12:00,52.0,42.0,-100.00,NNW,344,2.0,2.0,70,0.00,,,0.00,,2013-10-10 11:12:00,
2013-10-10 07:22:00,52.0,42.0,-100.00,NW,322,1.0,2.0,69,0.00,,,0.00,,2013-10-10 11:22:00,
2013-10-10 07:42:00,51.0,43.0,-100.00,WNW,285,1.0,2.0,72,0.00,,,0.00,,2013-10-10 11:42:00,
2013-10-10 07:57:00,51.0,43.0,-100.00,WNW,285,1.0,2.0,72,0.00,,,0.00,,2013-10-10 11:57:00,
2013-10-10 08:12:00,50.0,43.0,-100.00,WNW,298,0.0,0.0,75,0.00,,,0.00,,2013-10-10 12:12:00,
2013-10-10 08:21:00,50.0,43.0,-100.00,WNW,298,0.0,0.0,75,0.00,,,0.00,,2013-10-10 12:21:00,
2013-10-10 08:42:00,52.0,42.0,-100.00,NW,315,1.0,3.0,69,0.00,,,0.00,,2013-10-10 12:42:00,
2013-10-10 10:42:00,60.0,48.0,-100.00,SW,227,0.0,3.0,66,0.00,,,0.00,,2013-10-10 14:42:00,
2013-10-10 10:52:00,60.0,49.0,-100.00,South,186,0.0,2.0,69,0.00,,,0.00,,2013-10-10 14:52:00,
2013-10-10 11:02:00,60.0,49.0,-100.00,South,186,0.0,2.0,69,0.00,,,0.00,,2013-10-10 15:02:00,
2013-10-10 11:11:00,60.0,49.0,-100.00,South,186,0.0,2.0,69,0.00,,,0.00,,2013-10-10 15:11:00,
2013-10-10 11:22:00,60.0,50.0,-100.00,South,171,2.0,4.0,68,0.00,,,0.00,,2013-10-10 15:22:00,
2013-10-10 11:43:00,63.0,50.0,-100.00,SSE,150,1.0,2.0,63,0.00,,,0.00,,2013-10-10 15:43:00,
2013-10-10 11:54:00,63.0,50.0,-100.00,SSE,150,1.0,2.0,63,0.00,,,0.00,,2013-10-10 15:54:00,
2013-10-10 12:13:00,66.0,49.0,-100.00,South,188,1.0,4.0,55,0.00,,,0.00,,2013-10-10 16:13:00,
2013-10-10 12:23:00,66.0,51.0,-100.00,SSW,213,0.0,0.0,59,0.00,,,0.00,,2013-10-10 16:23:00,
2013-10-10 12:53:00,68.0,45.0,-100.00,East,88,5.0,10.0,43,0.00,,,-99.99,,2013-10-10 16:53:00,
2013-10-10 13:12:00,68.0,45.0,-100.00,ESE,116,4.0,10.0,44,0.00,,,-99.99,,2013-10-10 17:12:00,
2013-10-10 13:23:00,69.0,44.0,-100.00,NNE,28,3.0,8.0,40,0.00,,,-99.99,,2013-10-10 17:23:00,
2013-10-10 13:42:00,72.0,48.0,-100.00,ESE,116,2.0,6.0,43,0.00,,,-99.99,,2013-10-10 17:42:00,
2013-10-10 13:53:00,71.0,48.0,-100.00,East,90,5.0,12.0,45,0.00,,,-99.99,,2013-10-10 17:53:00,
2013-10-10 14:12:00,69.0,47.0,-100.00,East,95,5.0,8.0,46,0.00,,,-99.99,,2013-10-10 18:12:00,
2013-10-10 14:22:00,71.0,50.0,-100.00,SE,124,1.0,3.0,48,0.00,,,-99.99,,2013-10-10 18:22:00,
2013-10-10 14:42:00,71.0,50.0,-100.00,SSE,161,1.0,2.0,46,0.00,,,-99.99,,2013-10-10 18:42:00,
2013-10-10 14:52:00,71.0,47.0,-100.00,SE,131,3.0,8.0,41,0.00,,,-99.99,,2013-10-10 18:52:00,
2013-10-10 15:11:00,70.0,47.0,-100.00,ESE,117,5.0,8.0,44,0.00,,,-99.99,,2013-10-10 19:11:00,
2013-10-10 15:22:00,70.0,49.0,-100.00,SE,143,2.0,4.0,47,0.00,,,-99.99,,2013-10-10 19:22:00,
2013-10-10 15:42:00,71.0,49.0,-100.00,SSE,168,1.0,5.0,46,0.00,,,-99.99,,2013-10-10 19:42:00,
2013-10-10 15:53:00,69.0,49.0,-100.00,ESE,102,5.0,8.0,49,0.00,,,-99.99,,2013-10-10 19:53:00,
2013-10-10 16:12:00,69.0,51.0,-100.00,SE,134,3.0,7.0,51,0.00,,,-99.99,,2013-10-10 20:12:00,
2013-10-10 16:22:00,69.0,49.0,-100.00,East,95,6.0,9.0,48,0.00,,,-99.99,,2013-10-10 20:22:00,
2013-10-10 16:42:00,70.0,49.0,-100.00,ESE,116,5.0,9.0,48,0.00,,,-99.99,,2013-10-10 20:42:00,
2013-10-10 16:52:00,70.0,49.0,-100.00,ESE,116,5.0,9.0,48,0.00,,,-99.99,,2013-10-10 20:52:00,
2013-10-10 17:12:00,68.0,51.0,-100.00,ESE,116,4.0,6.0,53,0.00,,,-99.99,,2013-10-10 21:12:00,
2013-10-10 17:22:00,68.0,51.0,-100.00,ESE,116,4.0,6.0,53,0.00,,,-99.99,,2013-10-10 21:22:00,
2013-10-10 17:44:00,69.0,51.0,-100.00,NE,35,2.0,4.0,52,0.00,,,-99.99,,2013-10-10 21:44:00,
2013-10-10 17:54:00,68.0,51.0,-100.00,ESE,114,4.0,5.0,55,0.00,,,-99.99,,2013-10-10 21:54:00,
2013-10-10 18:13:00,68.0,51.0,-100.00,ESE,107,2.0,5.0,54,0.00,,,-99.99,,2013-10-10 22:13:00,
2013-10-10 18:24:00,69.0,51.0,-100.00,East,79,1.0,2.0,53,0.00,,,-99.99,,2013-10-10 22:24:00,
2013-10-10 18:43:00,66.0,53.0,-100.00,NNW,337,2.0,3.0,63,0.00,,,-99.99,,2013-10-10 22:43:00,
2013-10-10 18:53:00,66.0,51.0,-100.00,NE,52,4.0,6.0,58,0.00,,,-99.99,,2013-10-10 22:53:00,
2013-10-10 19:03:00,66.0,51.0,-100.00,NE,52,4.0,6.0,58,0.00,,,-99.99,,2013-10-10 23:03:00,
2013-10-10 19:12:00,66.0,51.0,-100.00,NE,52,4.0,6.0,58,0.00,,,-99.99,,2013-10-10 23:12:00,
2013-10-10 19:23:00,65.0,50.0,-100.00,NE,52,4.0,6.0,59,0.00,,,-99.99,,2013-10-10 23:23:00,
2013-10-10 19:43:00,64.0,49.0,-100.00,NE,49,4.0,6.0,59,0.00,,,-99.99,,2013-10-10 23:43:00,
2013-10-10 19:53:00,63.0,49.0,-100.00,ENE,58,3.0,5.0,59,0.00,,,-99.99,,2013-10-10 23:53:00,
2013-10-10 20:02:00,63.0,49.0,-100.00,ENE,58,3.0,5.0,59,0.00,,,-99.99,,2013-10-11 00:02:00,
2013-10-10 20:11:00,63.0,49.0,-100.00,ENE,58,3.0,5.0,59,0.00,,,-99.99,,2013-10-11 00:11:00,
2013-10-10 20:22:00,63.0,49.0,-100.00,NE,51,2.0,4.0,60,0.00,,,-99.99,,2013-10-11 00:22:00,
2013-10-10 20:42:00,62.0,48.0,-100.00,NE,52,3.0,4.0,60,0.00,,,-99.99,,2013-10-11 00:42:00,
2013-10-10 20:52:00,62.0,48.0,-100.00,ENE,61,4.0,6.0,61,0.00,,,-99.99,,2013-10-11 00:52:00,
2013-10-10 21:12:00,62.0,48.0,-100.00,NE,55,4.0,6.0,60,0.00,,,-99.99,,2013-10-11 01:12:00,
2013-10-10 21:22:00,62.0,48.0,-100.00,NE,55,4.0,6.0,60,0.00,,,-99.99,,2013-10-11 01:22:00,
2013-10-10 21:42:00,62.0,47.0,-100.00,ENE,61,5.0,8.0,59,0.00,,,-99.99,,2013-10-11 01:42:00,
2013-10-10 21:52:00,62.0,47.0,-100.00,ENE,61,5.0,6.0,58,0.00,,,-99.99,,2013-10-11 01:52:00,
2013-10-10 23:11:00,61.0,48.0,-100.00,NNE,30,2.0,3.0,62,0.00,,,-99.99,,2013-10-11 03:11:00,
2013-10-10 23:23:00,61.0,48.0,-100.00,NE,34,2.0,4.0,63,0.00,,,-99.99,,2013-10-11 03:23:00,
2013-10-10 23:54:00,60.0,48.0,-100.00,NE,38,2.0,4.0,64,0.00,,,-99.99,,2013-10-11 03:54:00,